Time;durP1;ratioP1;P1;durP2;ratioP2;P2;SDS_P1;SDS_P2;PMS_P1;PMS_P2;Temp;Humidity;BMP_temperature;BMP_pressure;BME280_temperature;BME280_humidity;BME280_pressure;Samples;Min_cycle;Max_cycle;Signal;HPM_P1;HPM_P2
2022/12/05 00:01:59;;;;;;;8.75;7.55;;;19.90;33.70;;;;;;5054538;28;20445;-54
2022/12/05 00:04:24;;;;;;;8.23;7.07;;;19.90;33.70;;;;;;5054376;28;20040;-54
2022/12/05 00:06:50;;;;;;;9.00;7.32;;;19.90;33.80;;;;;;5052574;28;20033;-52
2022/12/05 00:09:16;;;;;;;9.35;7.13;;;19.90;33.80;;;;;;5053726;28;20025;-54
2022/12/05 00:11:43;;;;;;;8.00;6.60;;;19.90;33.80;;;;;;5053528;28;20442;-52
2022/12/05 00:14:10;;;;;;;8.68;7.00;;;19.80;33.80;;;;;;5053361;28;20037;-54
2022/12/05 00:16:39;;;;;;;9.43;7.03;;;19.80;33.90;;;;;;5053984;28;20094;-54
2022/12/05 00:19:07;;;;;;;9.15;6.80;;;19.90;34.00;;;;;;5059159;28;20029;-55
2022/12/05 00:21:35;;;;;;;8.63;7.03;;;19.80;33.90;;;;;;5054338;28;20029;-52
2022/12/05 00:24:02;;;;;;;10.52;7.97;;;19.80;34.00;;;;;;5054669;28;20097;-52
2022/12/05 00:26:30;;;;;;;9.48;7.15;;;19.80;34.00;;;;;;5054107;28;20056;-53
2022/12/05 00:28:56;;;;;;;8.88;7.65;;;19.80;34.00;;;;;;5052941;28;20048;-53
2022/12/05 00:31:24;;;;;;;8.32;6.95;;;19.80;34.00;;;;;;5053872;28;20037;-54
2022/12/05 00:33:50;;;;;;;9.65;7.82;;;19.80;34.10;;;;;;5036534;28;20033;-54
2022/12/05 00:36:20;;;;;;;9.95;7.95;;;19.80;34.00;;;;;;5054242;28;20060;-56
2022/12/05 00:38:46;;;;;;;9.45;7.30;;;19.80;34.10;;;;;;5052526;28;20455;-50
2022/12/05 00:41:14;;;;;;;9.30;7.32;;;19.80;34.10;;;;;;5054380;28;20087;-48
2022/12/05 00:43:41;;;;;;;8.68;6.95;;;19.70;34.10;;;;;;5054455;28;20039;-50
2022/12/05 00:46:09;;;;;;;9.85;7.95;;;19.70;34.10;;;;;;5054225;28;20408;-52
2022/12/05 00:48:36;;;;;;;10.95;7.72;;;19.70;34.10;;;;;;5054563;28;20421;-54
2022/12/05 00:51:09;;;;;;;12.20;7.80;;;19.70;34.10;;;;;;5057051;28;20448;-53
2022/12/05 00:53:35;;;;;;;9.95;7.28;;;19.70;34.10;;;;;;5057976;28;20400;-54
2022/12/05 00:56:17;;;;;;;9.75;7.65;;;19.70;34.20;;;;;;5056475;28;20032;-52
2022/12/05 00:58:43;;;;;;;10.00;7.88;;;19.70;34.20;;;;;;5056784;28;20098;-50
2022/12/05 01:01:13;;;;;;;9.43;7.72;;;19.70;34.20;;;;;;5057293;28;20037;-52
2022/12/05 01:03:39;;;;;;;10.65;7.90;;;19.70;34.20;;;;;;5057530;28;20028;-55
2022/12/05 01:06:06;;;;;;;9.80;8.02;;;19.70;34.30;;;;;;5056629;28;20061;-54
2022/12/05 01:08:33;;;;;;;10.00;7.93;;;19.70;34.30;;;;;;5055322;28;20040;-53
2022/12/05 01:11:00;;;;;;;9.15;7.88;;;19.70;34.30;;;;;;5057310;28;20056;-52
2022/12/05 01:13:27;;;;;;;9.38;7.93;;;19.70;34.30;;;;;;5057521;28;20033;-54
2022/12/05 01:15:53;;;;;;;8.45;7.10;;;19.70;34.30;;;;;;5057572;28;20048;-55
2022/12/05 01:18:20;;;;;;;9.40;7.43;;;19.70;34.40;;;;;;5054912;28;20025;-50
2022/12/05 01:20:46;;;;;;;10.63;7.43;;;19.60;34.30;;;;;;5038884;28;20041;-55
2022/12/05 01:23:13;;;;;;;10.15;7.90;;;19.60;34.40;;;;;;5056798;28;20048;-51
2022/12/05 01:25:40;;;;;;;7.90;6.75;;;19.60;34.40;;;;;;5056977;28;20033;-56
2022/12/05 01:28:06;;;;;;;8.70;7.30;;;19.60;34.40;;;;;;5037681;28;20041;-49
2022/12/05 01:30:35;;;;;;;10.15;8.00;;;19.60;34.40;;;;;;5056623;28;20360;-53
2022/12/05 01:33:01;;;;;;;9.95;8.27;;;19.60;34.50;;;;;;5057163;28;20452;-51
2022/12/05 01:35:34;;;;;;;8.82;7.10;;;19.60;34.50;;;;;;5054322;28;20029;-54
2022/12/05 01:38:00;;;;;;;9.38;7.55;;;19.60;34.50;;;;;;5056373;28;20117;-49
2022/12/05 01:40:26;;;;;;;9.65;7.82;;;19.60;34.50;;;;;;5055511;28;20044;-52
2022/12/05 01:42:52;;;;;;;9.35;7.53;;;19.60;34.50;;;;;;5056822;28;20036;-52
2022/12/05 01:45:31;;;;;;;9.90;8.15;;;19.60;34.50;;;;;;5053140;28;20060;-54
2022/12/05 01:47:59;;;;;;;10.18;7.88;;;19.50;34.50;;;;;;5056618;28;20025;-52
2022/12/05 01:50:25;;;;;;;10.25;7.82;;;19.60;34.60;;;;;;5056607;28;20063;-53
2022/12/05 01:52:50;;;;;;;10.05;7.43;;;19.50;34.50;;;;;;5056741;28;20029;-53
2022/12/05 01:55:17;;;;;;;9.73;8.10;;;19.60;34.60;;;;;;5055156;28;20037;-55
2022/12/05 01:57:46;;;;;;;9.52;7.78;;;19.60;34.70;;;;;;5038380;28;20333;-52
2022/12/05 02:00:15;;;;;;;11.02;7.72;;;19.60;34.70;;;;;;5055924;28;20037;-51
2022/12/05 02:02:47;;;;;;;10.43;8.05;;;19.50;34.60;;;;;;5055821;28;20480;-53
2022/12/05 02:05:39;;;;;;;9.50;7.32;;;19.60;34.70;;;;;;5054911;28;20057;-54
2022/12/05 02:08:07;;;;;;;9.40;7.60;;;19.50;34.60;;;;;;5034145;28;20045;-55
2022/12/05 02:10:49;;;;;;;8.57;6.50;;;19.50;34.70;;;;;;5055661;28;20052;-55
2022/12/05 02:13:34;;;;;;;9.85;7.57;;;19.50;34.70;;;;;;5056170;28;20394;-54
2022/12/05 02:16:25;;;;;;;8.02;6.45;;;19.50;34.70;;;;;;5055870;28;20139;-53
2022/12/05 02:18:57;;;;;;;8.57;6.93;;;19.50;34.70;;;;;;5054777;28;20108;-54
2022/12/05 02:21:47;;;;;;;9.02;6.82;;;19.50;34.80;;;;;;5056444;28;20066;-53
2022/12/05 02:24:18;;;;;;;9.20;6.95;;;19.50;34.80;;;;;;5054574;28;20135;-53
2022/12/05 02:27:21;;;;;;;8.23;6.93;;;19.40;34.80;;;;;;5056069;28;20037;-54
2022/12/05 02:29:56;;;;;;;9.00;7.28;;;19.50;34.90;;;;;;5054697;28;20033;-51
2022/12/05 02:32:31;;;;;;;10.45;6.50;;;19.50;34.90;;;;;;5055834;28;20344;-52
2022/12/05 02:35:06;;;;;;;8.73;6.88;;;19.50;35.00;;;;;;5055123;28;20037;-55
2022/12/05 02:37:56;;;;;;;8.93;7.03;;;19.40;34.90;;;;;;5054170;28;20151;-53
2022/12/05 02:40:51;;;;;;;9.07;7.57;;;19.40;34.90;;;;;;5055801;28;20313;-49
2022/12/05 02:43:21;;;;;;;8.32;6.47;;;19.40;35.00;;;;;;5055938;28;20097;-52
2022/12/05 02:45:53;;;;;;;8.55;6.75;;;19.40;35.00;;;;;;5054305;28;20040;-51
2022/12/05 02:48:19;;;;;;;8.35;7.15;;;19.40;35.00;;;;;;5054229;28;20445;-51
2022/12/05 02:50:47;;;;;;;7.93;6.40;;;19.40;35.00;;;;;;5055233;28;20410;-56
2022/12/05 02:53:16;;;;;;;8.23;6.55;;;19.40;35.10;;;;;;5056217;28;20360;-50
2022/12/05 02:55:44;;;;;;;9.15;6.90;;;19.40;35.10;;;;;;5054641;28;20044;-56
2022/12/05 02:58:25;;;;;;;8.32;6.70;;;19.40;35.10;;;;;;5054044;28;20028;-54
2022/12/05 03:00:54;;;;;;;8.80;6.55;;;19.40;35.80;;;;;;5055157;28;20029;-51
2022/12/05 03:03:22;;;;;;;9.52;7.43;;;19.40;35.70;;;;;;5054872;28;20112;-55
2022/12/05 03:06:04;;;;;;;8.73;6.90;;;19.40;35.10;;;;;;5054780;28;20032;-50
2022/12/05 03:08:38;;;;;;;9.20;7.35;;;19.40;35.20;;;;;;5053119;28;20029;-54
2022/12/05 03:11:05;;;;;;;8.40;6.80;;;19.40;35.20;;;;;;5053948;28;20519;-50
2022/12/05 03:13:39;;;;;;;8.10;6.53;;;19.40;35.20;;;;;;5055131;28;20036;-56
2022/12/05 03:16:13;;;;;;;9.10;6.43;;;19.40;35.20;;;;;;5054741;28;20041;-51
2022/12/05 03:18:49;;;;;;;9.45;6.90;;;19.30;35.20;;;;;;5054398;28;20041;-53
2022/12/05 03:21:30;;;;;;;7.63;6.53;;;19.30;35.20;;;;;;5054967;28;20067;-55
2022/12/05 03:24:02;;;;;;;8.07;6.40;;;19.30;35.30;;;;;;5034936;28;20037;-52
2022/12/05 03:26:37;;;;;;;7.20;5.93;;;19.40;35.30;;;;;;5048926;28;20138;-51
2022/12/05 03:29:27;;;;;;;7.38;6.18;;;19.30;35.30;;;;;;5054268;28;20037;-56
2022/12/05 03:31:56;;;;;;;7.63;5.95;;;19.40;35.40;;;;;;5053923;28;20412;-53
2022/12/05 03:35:01;;;;;;;9.15;7.10;;;19.30;35.30;;;;;;5055115;28;20095;-53
2022/12/05 03:37:39;;;;;;;7.97;5.93;;;19.40;35.40;;;;;;5054071;28;20057;-54
2022/12/05 03:40:28;;;;;;;7.60;6.20;;;19.30;35.40;;;;;;5054718;28;20437;-54
2022/12/05 03:43:08;;;;;;;8.63;6.55;;;19.30;35.40;;;;;;5043351;28;20044;-54
2022/12/05 03:45:52;;;;;;;7.63;6.47;;;19.30;35.40;;;;;;5054665;28;20040;-53
2022/12/05 03:48:29;;;;;;;7.03;5.90;;;19.30;35.40;;;;;;5054197;28;20029;-50
2022/12/05 03:50:56;;;;;;;7.82;5.97;;;19.30;35.50;;;;;;5054154;28;20047;-54
2022/12/05 03:53:28;;;;;;;8.13;6.22;;;19.30;35.50;;;;;;5052989;28;20409;-54
2022/12/05 03:56:11;;;;;;;9.55;6.57;;;19.30;35.60;;;;;;5054605;28;20036;-54
2022/12/05 03:59:05;;;;;;;8.05;6.22;;;19.30;35.60;;;;;;5053892;28;20036;-55
2022/12/05 04:01:33;;;;;;;9.20;5.95;;;19.30;35.60;;;;;;5046053;28;20373;-54
2022/12/05 04:04:15;;;;;;;7.43;5.80;;;19.30;35.60;;;;;;5052712;28;20088;-56
2022/12/05 04:06:46;;;;;;;6.82;5.68;;;19.30;35.60;;;;;;5053677;28;20365;-54
2022/12/05 04:09:23;;;;;;;6.60;5.43;;;19.30;35.60;;;;;;5052167;28;20025;-54
2022/12/05 04:12:01;;;;;;;8.43;6.70;;;19.30;35.70;;;;;;5052575;28;20049;-55
2022/12/05 04:14:44;;;;;;;9.05;6.47;;;19.30;35.70;;;;;;5054678;28;20051;-53
2022/12/05 04:17:31;;;;;;;7.50;6.15;;;19.30;35.70;;;;;;5053474;28;20033;-55
2022/12/05 04:22:47;;;;;;;8.30;6.32;;;19.20;35.70;;;;;;5055168;28;20344;-54
2022/12/05 04:25:34;;;;;;;7.78;6.28;;;19.20;35.70;;;;;;5058306;28;20053;-52
2022/12/05 04:28:08;;;;;;;8.68;6.15;;;19.20;35.70;;;;;;5057335;28;20028;-49
2022/12/05 04:31:11;;;;;;;7.53;5.60;;;19.20;35.70;;;;;;5035000;28;20098;-52
2022/12/05 04:33:53;;;;;;;8.07;6.30;;;19.20;35.90;;;;;;5056803;28;20061;-53
2022/12/05 04:36:21;;;;;;;7.70;6.07;;;19.20;35.90;;;;;;5057799;28;20025;-54
2022/12/05 04:38:55;;;;;;;7.75;5.80;;;19.20;36.00;;;;;;5057393;28;20033;-54
2022/12/05 04:41:32;;;;;;;6.20;5.60;;;19.20;36.00;;;;;;5057759;28;20025;-55
2022/12/05 04:44:02;;;;;;;6.63;5.43;;;19.20;36.00;;;;;;5056647;28;20094;-54
2022/12/05 04:46:28;;;;;;;8.45;5.72;;;19.20;36.10;;;;;;5040241;28;20086;-53
2022/12/05 04:48:59;;;;;;;7.45;5.82;;;19.20;36.10;;;;;;5057125;28;20032;-52
2022/12/05 04:51:28;;;;;;;7.15;5.55;;;19.20;36.10;;;;;;5057380;28;20029;-51
2022/12/05 04:54:03;;;;;;;7.95;6.00;;;19.20;36.10;;;;;;5056275;28;20049;-55
2022/12/05 04:56:35;;;;;;;8.20;6.07;;;19.20;36.10;;;;;;5057896;28;20061;-53
2022/12/05 04:59:01;;;;;;;6.50;5.30;;;19.20;36.10;;;;;;5056695;28;20032;-57
2022/12/05 05:01:32;;;;;;;6.63;5.68;;;19.20;36.10;;;;;;5057246;28;20025;-50
2022/12/05 05:04:20;;;;;;;6.63;5.40;;;19.20;36.10;;;;;;5056717;28;20040;-53
2022/12/05 05:06:46;;;;;;;5.82;5.05;;;19.20;36.10;;;;;;5057255;28;20467;-51
2022/12/05 05:09:12;;;;;;;8.07;6.15;;;19.20;36.10;;;;;;5056152;28;20029;-53
2022/12/05 05:11:38;;;;;;;7.03;5.47;;;19.20;36.10;;;;;;5055662;28;20147;-50
2022/12/05 05:14:04;;;;;;;6.68;5.20;;;19.20;36.10;;;;;;5056407;28;20514;-54
2022/12/05 05:16:38;;;;;;;7.05;5.45;;;19.20;36.10;;;;;;5056990;28;20049;-56
2022/12/05 05:19:05;;;;;;;6.15;5.00;;;19.20;36.20;;;;;;5056518;28;20044;-53
2022/12/05 05:21:32;;;;;;;5.90;4.88;;;19.20;36.20;;;;;;5058387;28;20032;-50
2022/12/05 05:23:59;;;;;;;6.80;5.15;;;19.20;36.10;;;;;;5055951;28;20073;-49
2022/12/05 05:26:26;;;;;;;6.05;4.90;;;19.20;36.20;;;;;;5056649;28;20090;-54
2022/12/05 05:28:52;;;;;;;6.93;5.68;;;19.20;36.20;;;;;;5056742;28;20079;-52
2022/12/05 05:31:20;;;;;;;6.38;4.85;;;19.20;36.20;;;;;;5056589;28;20500;-49
2022/12/05 05:33:50;;;;;;;5.95;5.00;;;19.20;36.20;;;;;;5055183;28;20118;-53
2022/12/05 05:36:17;;;;;;;6.78;5.38;;;19.20;36.20;;;;;;5056722;28;20063;-53
2022/12/05 05:38:46;;;;;;;6.13;5.00;;;19.20;36.20;;;;;;5055832;28;20032;-51
2022/12/05 05:41:14;;;;;;;5.78;5.10;;;19.20;36.80;;;;;;5056710;28;20383;-49
2022/12/05 05:43:40;;;;;;;6.15;5.07;;;19.20;36.20;;;;;;5036940;28;20608;-52
2022/12/05 05:46:06;;;;;;;6.15;4.78;;;19.20;36.20;;;;;;5056064;28;20029;-53
2022/12/05 05:48:32;;;;;;;5.65;4.50;;;19.10;36.20;;;;;;5056378;28;20025;-53
2022/12/05 05:50:59;;;;;;;5.28;4.78;;;19.20;36.30;;;;;;5055948;28;20021;-49
2022/12/05 05:53:25;;;;;;;6.22;4.93;;;19.10;36.20;;;;;;5055029;28;20041;-51
2022/12/05 05:55:51;;;;;;;6.22;5.05;;;19.10;36.20;;;;;;5055862;28;20033;-52
2022/12/05 05:58:16;;;;;;;6.35;5.00;;;19.10;36.20;;;;;;5056022;28;20024;-49
2022/12/05 06:00:42;;;;;;;6.80;5.20;;;19.10;36.20;;;;;;5056658;28;20059;-51
2022/12/05 06:03:08;;;;;;;5.78;4.70;;;19.10;36.20;;;;;;5055348;28;20029;-54
2022/12/05 06:05:34;;;;;;;5.60;4.50;;;19.10;36.30;;;;;;5055846;28;20052;-55
2022/12/05 06:08:00;;;;;;;5.40;4.70;;;19.10;36.30;;;;;;5055580;28;20337;-50
2022/12/05 06:10:28;;;;;;;5.93;4.80;;;19.10;36.30;;;;;;5054695;28;20372;-53
2022/12/05 06:12:54;;;;;;;6.45;4.90;;;19.10;36.30;;;;;;5055626;28;20037;-51
2022/12/05 06:15:20;;;;;;;6.45;4.78;;;19.10;36.30;;;;;;5055505;28;20098;-50
2022/12/05 06:17:46;;;;;;;5.97;4.50;;;19.10;36.30;;;;;;5055430;28;20037;-52
2022/12/05 06:20:12;;;;;;;5.60;4.85;;;19.10;36.30;;;;;;5056412;28;20037;-54
2022/12/05 06:22:38;;;;;;;6.38;4.68;;;19.10;36.40;;;;;;5055335;28;20448;-52
2022/12/05 06:25:05;;;;;;;6.30;5.03;;;19.10;36.40;;;;;;5054699;28;20047;-51
2022/12/05 06:27:31;;;;;;;5.15;4.63;;;19.10;36.40;;;;;;5055473;28;20035;-55
2022/12/05 06:29:57;;;;;;;5.43;4.72;;;19.10;36.40;;;;;;5055667;28;20025;-52
2022/12/05 06:32:23;;;;;;;6.25;4.95;;;19.10;36.40;;;;;;5055577;28;20063;-53
2022/12/05 06:34:48;;;;;;;6.22;4.93;;;19.10;36.40;;;;;;5054393;28;20033;-57
2022/12/05 06:37:14;;;;;;;5.57;4.53;;;19.10;36.40;;;;;;5055263;28;20021;-52
2022/12/05 06:39:40;;;;;;;5.97;4.60;;;19.10;36.40;;;;;;5055299;28;20032;-50
2022/12/05 06:42:06;;;;;;;6.30;4.80;;;19.10;36.40;;;;;;5055899;28;20074;-50
2022/12/05 06:44:32;;;;;;;5.65;4.63;;;19.10;36.40;;;;;;5054243;28;20041;-51
2022/12/05 06:46:58;;;;;;;5.68;4.78;;;19.10;36.50;;;;;;5055703;28;20035;-54
2022/12/05 06:49:25;;;;;;;5.78;4.47;;;19.10;36.50;;;;;;5054285;28;20040;-52
2022/12/05 06:51:54;;;;;;;5.65;4.70;;;19.10;36.50;;;;;;5036199;28;20051;-51
2022/12/05 06:54:20;;;;;;;5.55;4.30;;;19.10;36.50;;;;;;5055767;28;20047;-52
2022/12/05 06:56:46;;;;;;;6.35;4.88;;;19.00;36.40;;;;;;5055349;28;20033;-53
2022/12/05 06:59:12;;;;;;;6.22;4.60;;;19.10;36.50;;;;;;5051433;28;20048;-52
2022/12/05 07:01:38;;;;;;;5.20;4.65;;;19.00;36.50;;;;;;5029473;28;20029;-53
2022/12/05 07:04:14;;;;;;;5.78;4.82;;;19.10;36.50;;;;;;5055812;28;20072;-51
2022/12/05 07:06:42;;;;;;;5.70;4.43;;;19.00;36.50;;;;;;5054626;28;20039;-51
2022/12/05 07:09:08;;;;;;;6.72;4.55;;;19.00;36.50;;;;;;5054066;28;20460;-50
2022/12/05 07:11:34;;;;;;;5.38;4.13;;;19.00;36.50;;;;;;5031878;28;20384;-52
2022/12/05 07:14:01;;;;;;;5.97;4.35;;;19.00;37.20;;;;;;5054598;28;20073;-51
2022/12/05 07:16:28;;;;;;;5.38;4.15;;;19.00;36.60;;;;;;5054508;28;20388;-53
2022/12/05 07:18:55;;;;;;;6.18;4.45;;;19.00;36.70;;;;;;5054638;28;20477;-53
2022/12/05 07:21:21;;;;;;;5.80;4.38;;;19.00;36.70;;;;;;5053626;28;20033;-55
2022/12/05 07:23:48;;;;;;;5.75;4.28;;;19.00;36.70;;;;;;5054739;28;20029;-56
2022/12/05 07:26:17;;;;;;;5.43;4.50;;;19.00;36.70;;;;;;5053694;28;20043;-53
2022/12/05 07:28:43;;;;;;;5.85;4.72;;;19.00;36.70;;;;;;5053351;28;20342;-51
2022/12/05 07:31:12;;;;;;;5.50;4.53;;;19.00;36.80;;;;;;5054193;28;20029;-56
2022/12/05 07:33:39;;;;;;;5.97;4.30;;;19.00;36.80;;;;;;5052455;28;20037;-54
2022/12/05 07:36:08;;;;;;;5.30;4.32;;;19.00;36.80;;;;;;5047969;28;20025;-55
2022/12/05 07:38:34;;;;;;;5.13;4.35;;;19.00;36.80;;;;;;5050063;28;20025;-54
2022/12/05 07:41:04;;;;;;;5.05;4.20;;;19.00;36.80;;;;;;5054485;28;20025;-57
2022/12/05 07:43:30;;;;;;;4.93;4.03;;;19.00;36.80;;;;;;5052373;28;20112;-53
2022/12/05 07:46:01;;;;;;;5.10;4.30;;;19.00;36.90;;;;;;5051999;28;20115;-56
2022/12/05 07:48:27;;;;;;;5.65;3.95;;;19.00;36.90;;;;;;5054272;28;20047;-49
2022/12/05 07:50:52;;;;;;;4.90;4.30;;;19.00;36.90;;;;;;5052646;28;20021;-53
2022/12/05 07:53:18;;;;;;;5.95;4.47;;;19.00;36.90;;;;;;5051620;28;21268;-54
2022/12/05 07:55:44;;;;;;;5.43;3.90;;;19.00;36.90;;;;;;5052205;28;20025;-55
2022/12/05 07:58:10;;;;;;;4.97;3.90;;;19.00;37.00;;;;;;5054907;28;20021;-55
2022/12/05 08:00:36;;;;;;;5.75;4.38;;;19.00;37.00;;;;;;5056155;28;20067;-55
2022/12/05 08:03:02;;;;;;;4.80;4.05;;;19.00;37.10;;;;;;5057104;28;20044;-55
2022/12/05 08:05:28;;;;;;;5.20;4.30;;;19.00;37.00;;;;;;5058270;28;20043;-55
2022/12/05 08:07:54;;;;;;;7.50;4.70;;;19.00;37.10;;;;;;5050511;28;20017;-53
2022/12/05 08:10:20;;;;;;;5.03;4.30;;;19.00;37.10;;;;;;5057542;28;20052;-52
2022/12/05 08:12:45;;;;;;;5.10;3.50;;;18.90;37.10;;;;;;5056883;28;20126;-51
2022/12/05 08:15:11;;;;;;;7.40;4.32;;;19.00;37.20;;;;;;5058266;28;20033;-55
2022/12/05 08:17:37;;;;;;;6.40;4.38;;;19.00;37.20;;;;;;5051348;28;20052;-53
2022/12/05 08:20:03;;;;;;;7.10;3.78;;;18.90;37.20;;;;;;5057477;28;20035;-55
2022/12/05 08:22:29;;;;;;;5.18;4.10;;;19.00;37.20;;;;;;5060960;28;20033;-51
2022/12/05 08:24:55;;;;;;;4.97;3.85;;;18.90;37.10;;;;;;5056960;28;20039;-52
2022/12/05 08:27:21;;;;;;;5.32;4.10;;;19.00;37.20;;;;;;5040457;28;20031;-54
2022/12/05 08:29:47;;;;;;;5.10;4.10;;;19.00;37.20;;;;;;5055669;28;20444;-53
2022/12/05 08:32:12;;;;;;;5.80;3.83;;;19.00;37.10;;;;;;5057625;28;20416;-53
2022/12/05 08:34:38;;;;;;;5.95;3.80;;;19.10;37.10;;;;;;5056953;28;20379;-50
2022/12/05 08:37:04;;;;;;;4.85;4.07;;;19.10;37.10;;;;;;5057292;28;20032;-56
2022/12/05 08:39:30;;;;;;;4.30;3.33;;;19.20;37.10;;;;;;5058130;28;20083;-54
2022/12/05 08:41:56;;;;;;;5.32;4.22;;;19.20;37.00;;;;;;5052272;28;20094;-55
2022/12/05 08:44:22;;;;;;;4.65;3.88;;;19.30;37.00;;;;;;5057155;28;20033;-55
2022/12/05 08:46:49;;;;;;;4.88;3.67;;;19.30;37.00;;;;;;5058443;28;20037;-53
2022/12/05 08:49:15;;;;;;;4.15;3.33;;;19.40;36.90;;;;;;5057907;28;20516;-53
2022/12/05 08:51:42;;;;;;;5.57;4.10;;;19.40;36.90;;;;;;5056150;28;20090;-53
2022/12/05 08:54:08;;;;;;;4.38;3.55;;;19.50;36.90;;;;;;5055726;28;20037;-55
2022/12/05 08:56:34;;;;;;;4.30;3.67;;;19.60;36.80;;;;;;5055979;28;20119;-57
2022/12/05 08:59:03;;;;;;;5.65;4.18;;;19.60;36.70;;;;;;5056046;28;20186;-53
2022/12/05 09:01:30;;;;;;;5.80;4.13;;;19.70;36.80;;;;;;5054743;28;20025;-52
2022/12/05 09:03:59;;;;;;;4.70;3.92;;;19.70;36.90;;;;;;5047209;28;20040;-54
2022/12/05 09:06:26;;;;;;;5.35;4.13;;;19.80;37.50;;;;;;5054973;28;20041;-58
2022/12/05 09:09:03;;;;;;;5.40;4.30;;;19.80;36.80;;;;;;5051714;28;20336;-55
2022/12/05 09:11:33;;;;;;;5.50;4.15;;;20.00;36.80;;;;;;5054428;28;20057;-51
2022/12/05 09:13:59;;;;;;;5.53;4.25;;;20.00;36.60;;;;;;5055453;28;20037;-53
2022/12/05 09:16:28;;;;;;;4.57;4.10;;;20.00;36.60;;;;;;5054403;28;20032;-51
2022/12/05 09:18:55;;;;;;;7.13;4.35;;;20.10;36.50;;;;;;5035812;28;20052;-51
2022/12/05 09:21:26;;;;;;;5.57;4.30;;;20.10;36.40;;;;;;5052785;28;20109;-54
2022/12/05 09:23:52;;;;;;;5.78;4.85;;;20.20;36.30;;;;;;5045893;28;20034;-50
2022/12/05 09:26:22;;;;;;;5.65;4.30;;;20.20;36.30;;;;;;5041238;28;20029;-54
2022/12/05 09:28:48;;;;;;;5.55;4.40;;;20.20;36.20;;;;;;5051054;28;20047;-57
2022/12/05 09:31:17;;;;;;;5.47;4.57;;;20.30;36.20;;;;;;5055307;28;20378;-54
2022/12/05 09:33:44;;;;;;;6.22;4.60;;;20.30;36.10;;;;;;5057135;28;20036;-53
2022/12/05 09:36:14;;;;;;;6.13;4.75;;;20.40;36.10;;;;;;5039548;28;20036;-57
2022/12/05 09:38:40;;;;;;;5.43;4.50;;;20.40;36.10;;;;;;5056305;28;20044;-54
2022/12/05 09:44:18;;;;;;;6.30;4.78;;;20.40;35.90;;;;;;5056819;28;20404;-56
2022/12/05 09:47:05;;;;;;;6.18;4.80;;;20.50;35.90;;;;;;5056824;28;20067;-55
2022/12/05 09:49:33;;;;;;;6.30;4.70;;;20.50;35.90;;;;;;5036997;28;20037;-53
2022/12/05 09:52:00;;;;;;;5.65;4.60;;;20.50;35.80;;;;;;5032388;28;20041;-57
2022/12/05 09:54:27;;;;;;;5.78;4.90;;;20.50;35.80;;;;;;5056337;28;20419;-55
2022/12/05 09:56:53;;;;;;;6.10;4.88;;;20.50;35.80;;;;;;5055794;28;20025;-57
2022/12/05 09:59:20;;;;;;;6.55;4.95;;;20.50;35.70;;;;;;5056814;28;20062;-49
2022/12/05 10:01:57;;;;;;;7.13;4.78;;;20.60;35.80;;;;;;5047549;28;20111;-55
2022/12/05 10:04:56;;;;;;;5.95;4.63;;;20.60;35.70;;;;;;5056094;28;20123;-55
2022/12/05 10:07:37;;;;;;;5.53;4.85;;;20.60;35.70;;;;;;5055628;28;20025;-53
2022/12/05 10:10:24;;;;;;;6.18;5.30;;;20.60;35.60;;;;;;5056696;28;20053;-57
2022/12/05 10:13:12;;;;;;;6.70;5.18;;;20.60;35.60;;;;;;5056007;28;20044;-53
2022/12/05 10:15:46;;;;;;;6.15;5.10;;;20.60;35.60;;;;;;5056245;28;20445;-55
2022/12/05 10:18:40;;;;;;;5.32;4.35;;;20.60;35.60;;;;;;5055221;28;20099;-53
2022/12/05 10:21:13;;;;;;;7.40;5.20;;;20.50;35.60;;;;;;5055278;28;20033;-56
2022/12/05 10:24:01;;;;;;;8.25;4.90;;;20.60;35.60;;;;;;5055915;28;20037;-57
2022/12/05 10:26:42;;;;;;;5.95;5.13;;;20.60;35.60;;;;;;5055597;28;20035;-53
2022/12/05 10:29:32;;;;;;;7.07;4.88;;;20.50;35.60;;;;;;5055776;28;20063;-52
2022/12/05 10:32:27;;;;;;;6.80;4.85;;;20.50;35.60;;;;;;5055824;28;20051;-53
2022/12/05 10:34:59;;;;;;;5.75;4.90;;;20.50;35.60;;;;;;5052968;28;20053;-53
2022/12/05 10:37:25;;;;;;;5.65;4.68;;;20.50;35.60;;;;;;5056104;28;20048;-55
2022/12/05 10:39:51;;;;;;;7.20;5.43;;;20.50;35.70;;;;;;5055519;28;20028;-55
2022/12/05 10:42:24;;;;;;;7.38;5.35;;;20.50;35.70;;;;;;5055568;28;20041;-55
2022/12/05 10:44:58;;;;;;;5.72;4.88;;;20.50;35.70;;;;;;5055284;28;20453;-56
2022/12/05 10:47:24;;;;;;;6.43;5.13;;;20.50;35.70;;;;;;5055784;28;20361;-54
2022/12/05 10:49:50;;;;;;;6.72;4.88;;;20.50;35.70;;;;;;5038307;28;20340;-55
2022/12/05 10:52:16;;;;;;;5.90;5.00;;;20.50;35.80;;;;;;5055568;28;20033;-54
2022/12/05 10:54:48;;;;;;;6.53;5.05;;;20.50;35.80;;;;;;5055289;28;20068;-57
2022/12/05 10:57:25;;;;;;;6.90;5.57;;;20.50;35.80;;;;;;5055587;28;20033;-52
2022/12/05 10:59:52;;;;;;;6.30;4.70;;;20.50;35.80;;;;;;5035624;28;20042;-52
2022/12/05 11:02:30;;;;;;;6.45;4.90;;;20.50;35.80;;;;;;5046873;28;20049;-51
2022/12/05 11:04:57;;;;;;;6.28;4.93;;;20.50;35.80;;;;;;5053688;28;20052;-56
2022/12/05 11:07:36;;;;;;;6.47;5.18;;;20.40;35.80;;;;;;5053029;28;20025;-53
2022/12/05 11:10:22;;;;;;;6.43;5.15;;;20.50;35.90;;;;;;5050481;28;20399;-53
2022/12/05 11:12:48;;;;;;;7.22;5.45;;;20.50;36.00;;;;;;5053521;28;20372;-52
2022/12/05 11:15:18;;;;;;;7.03;5.38;;;20.40;36.00;;;;;;5053878;28;20032;-53
2022/12/05 11:17:45;;;;;;;6.47;5.22;;;20.40;36.00;;;;;;5053556;28;20029;-53
2022/12/05 11:20:16;;;;;;;5.78;4.97;;;20.40;36.00;;;;;;5053276;28;20024;-54
2022/12/05 11:22:53;;;;;;;6.15;4.68;;;20.40;36.00;;;;;;5053482;28;20040;-49
2022/12/05 11:25:28;;;;;;;6.43;4.78;;;20.40;36.00;;;;;;5053759;28;20048;-53
2022/12/05 11:27:55;;;;;;;7.05;5.13;;;20.40;36.00;;;;;;5050800;28;20060;-57
2022/12/05 11:30:26;;;;;;;6.35;4.72;;;20.40;36.00;;;;;;5053328;28;20388;-53
2022/12/05 11:33:10;;;;;;;6.05;4.90;;;20.40;36.10;;;;;;5054019;28;20112;-53
2022/12/05 11:35:36;;;;;;;7.60;4.95;;;20.40;36.00;;;;;;5054662;28;20067;-56
2022/12/05 11:38:04;;;;;;;6.40;5.07;;;20.40;36.10;;;;;;5054385;28;20576;-51
2022/12/05 11:40:34;;;;;;;5.75;4.60;;;20.40;36.10;;;;;;5054334;28;20029;-52
2022/12/05 11:43:03;;;;;;;5.97;4.65;;;20.40;36.10;;;;;;5053508;28;20028;-52
2022/12/05 11:46:05;;;;;;;6.07;4.50;;;20.40;36.10;;;;;;5036701;28;20025;-51
2022/12/05 11:48:51;;;;;;;5.90;4.40;;;20.40;36.10;;;;;;5054546;28;20428;-50
2022/12/05 11:51:38;;;;;;;6.30;4.57;;;20.40;36.10;;;;;;5003806;28;20049;-52
2022/12/05 11:54:36;;;;;;;6.57;4.43;;;20.40;36.10;;;;;;5054609;28;20069;-53
2022/12/05 11:57:47;;;;;;;6.40;4.90;;;20.40;36.20;;;;;;5033055;28;20033;-53
2022/12/05 12:00:26;;;;;;;6.13;4.38;;;20.40;36.20;;;;;;5015983;28;20523;-52
2022/12/05 12:03:19;;;;;;;4.80;3.75;;;20.40;36.20;;;;;;5054993;28;20029;-55
2022/12/05 12:06:04;;;;;;;5.38;3.95;;;20.40;36.30;;;;;;5035190;28;20452;-53
2022/12/05 12:09:18;;;;;;;5.82;4.43;;;20.40;36.30;;;;;;5053742;28;20029;-55
2022/12/05 12:11:53;;;;;;;6.10;4.53;;;20.40;36.30;;;;;;5053997;28;20077;-49
2022/12/05 12:14:24;;;;;;;;;;;20.40;36.30;;;;;;5054582;28;20041;-51
2022/12/05 12:17:07;;;;;;;4.95;3.65;;;20.40;36.30;;;;;;5053864;28;19920;-53
2022/12/05 12:19:54;;;;;;;5.05;3.95;;;20.50;36.30;;;;;;5049084;28;20044;-53
2022/12/05 12:22:38;;;;;;;4.43;3.50;;;20.50;36.30;;;;;;5052356;28;20025;-52
2022/12/05 12:25:51;;;;;;;5.03;3.50;;;20.50;36.30;;;;;;5052411;28;21317;-54
2022/12/05 12:28:36;;;;;;;5.00;3.25;;;20.40;36.20;;;;;;4997514;28;20037;-53
2022/12/05 12:31:33;;;;;;;4.00;3.20;;;20.50;36.30;;;;;;5051006;28;20037;-50
2022/12/05 12:34:36;;;;;;;4.22;3.22;;;20.50;36.30;;;;;;5050276;28;20118;-49
2022/12/05 12:37:17;;;;;;;6.68;3.42;;;20.50;36.30;;;;;;5047777;28;20025;-54
2022/12/05 12:40:11;;;;;;;3.78;3.30;;;20.50;36.30;;;;;;5031969;28;20021;-57
2022/12/05 12:43:03;;;;;;;4.03;3.40;;;20.50;36.30;;;;;;5050519;28;20037;-52
2022/12/05 12:45:32;;;;;;;4.03;3.03;;;20.50;36.30;;;;;;5047109;28;20037;-52
2022/12/05 12:48:21;;;;;;;5.15;3.33;;;20.50;36.30;;;;;;5054304;28;20021;-55
2022/12/05 12:50:52;;;;;;;3.83;2.70;;;20.50;36.30;;;;;;5056170;28;20044;-52
2022/12/05 12:53:42;;;;;;;5.32;2.80;;;20.50;36.30;;;;;;5055557;28;20448;-54
2022/12/05 12:56:45;;;;;;;3.50;2.60;;;20.50;36.20;;;;;;5055033;28;20029;-56
2022/12/05 12:59:52;;;;;;;3.53;2.78;;;20.50;36.20;;;;;;5056416;28;20029;-57
2022/12/05 13:02:53;;;;;;;3.78;2.80;;;20.50;36.20;;;;;;5057719;28;20433;-56
2022/12/05 13:05:33;;;;;;;3.20;2.80;;;20.50;36.20;;;;;;5037569;28;20128;-54
2022/12/05 13:08:31;;;;;;;2.65;2.20;;;20.50;36.20;;;;;;5055145;28;20037;-55
2022/12/05 13:11:00;;;;;;;3.28;2.72;;;20.50;36.20;;;;;;5055998;28;20072;-52
2022/12/05 13:13:32;;;;;;;3.00;2.40;;;20.50;36.30;;;;;;5059450;28;20414;-52
2022/12/05 13:16:00;;;;;;;4.70;3.05;;;20.50;36.50;;;;;;5041181;28;20029;-57
2022/12/05 13:18:27;;;;;;;2.97;2.33;;;20.50;36.60;;;;;;5048216;28;20053;-61
2022/12/05 13:21:01;;;;;;;3.75;2.40;;;20.60;36.70;;;;;;5044592;28;20039;-58
2022/12/05 13:23:29;;;;;;;;;;;20.60;36.90;;;;;;5046568;28;20029;-57